createdAt,value
2022-08-10T00:04:50.718Z,18.92
2022-08-10T00:09:53.659Z,18.82
2022-08-10T00:14:56.640Z,18.73
2022-08-10T00:20:03.000Z,18.67
2022-08-10T00:25:08.284Z,18.56
2022-08-10T00:30:12.641Z,18.51
2022-08-10T00:35:16.943Z,18.50
2022-08-10T00:40:19.980Z,18.42
2022-08-10T00:45:40.640Z,18.34
2022-08-10T00:50:45.207Z,18.32
2022-08-10T00:57:07.871Z,18.25
2022-08-10T01:02:09.903Z,18.14
2022-08-10T01:06:42.766Z,18.10
2022-08-10T01:12:28.678Z,18.07
2022-08-10T01:17:18.628Z,18.01
2022-08-10T01:22:57.692Z,17.98
2022-08-10T01:28:09.408Z,17.91
2022-08-10T01:33:20.087Z,17.88
2022-08-10T01:38:38.809Z,17.80
2022-08-10T01:43:44.071Z,17.71
2022-08-10T01:48:51.151Z,17.66
2022-08-10T01:53:57.879Z,17.64
2022-08-10T01:59:03.868Z,17.55
2022-08-10T02:04:11.956Z,17.48
2022-08-10T02:09:20.006Z,17.39
2022-08-10T02:14:24.712Z,17.30
2022-08-10T02:19:31.031Z,17.20
2022-08-10T02:24:35.993Z,17.08
2022-08-10T02:29:42.381Z,17.01
2022-08-10T02:34:48.632Z,16.96
2022-08-10T02:39:51.829Z,16.84
2022-08-10T02:45:27.144Z,16.79
2022-08-10T02:50:28.909Z,16.76
2022-08-10T02:55:38.768Z,16.71
2022-08-10T03:00:46.213Z,16.67
2022-08-10T03:05:54.830Z,16.67
2022-08-10T03:11:01.074Z,16.64
2022-08-10T03:16:05.414Z,16.61
2022-08-10T03:21:12.056Z,16.62
2022-08-10T03:26:20.033Z,16.56
2022-08-10T03:31:23.510Z,16.63
2022-08-10T03:36:43.620Z,16.58
2022-08-10T03:41:55.746Z,16.57
2022-08-10T03:47:02.385Z,16.51
2022-08-10T03:52:07.771Z,16.45
2022-08-10T03:57:11.614Z,16.35
2022-08-10T04:02:45.387Z,16.32
2022-08-10T04:07:40.548Z,16.29
2022-08-10T04:12:43.479Z,16.21
2022-08-10T04:18:02.637Z,16.16
2022-08-10T04:23:14.924Z,16.08
2022-08-10T04:28:18.181Z,15.98
2022-08-10T04:33:23.905Z,15.96
2022-08-10T04:38:30.151Z,15.87
2022-08-10T04:43:33.234Z,15.84
2022-08-10T04:48:43.403Z,15.81
2022-08-10T04:54:03.991Z,15.81
2022-08-10T04:59:11.903Z,15.83
2022-08-10T05:04:36.984Z,15.83
2022-08-10T05:10:03.125Z,15.86
2022-08-10T05:15:03.423Z,15.87
2022-08-10T05:20:08.668Z,15.93
2022-08-10T05:25:15.459Z,15.97
2022-08-10T05:30:20.330Z,16.03
2022-08-10T05:35:23.319Z,16.12
2022-08-10T05:40:30.313Z,16.23
2022-08-10T05:45:33.999Z,16.33
2022-08-10T05:50:56.969Z,16.45
2022-08-10T05:56:02.548Z,16.55
2022-08-10T06:01:12.916Z,16.71
2022-08-10T06:06:21.797Z,16.82
2022-08-10T06:12:27.945Z,16.94
2022-08-10T06:16:55.964Z,17.04
2022-08-10T06:22:00.796Z,17.17
2022-08-10T06:27:06.450Z,17.31
2022-08-10T06:32:12.811Z,17.40
2022-08-10T06:37:18.573Z,17.49
2022-08-10T06:42:30.388Z,17.61
2022-08-10T06:47:40.362Z,17.72
2022-08-10T06:52:44.907Z,17.80
2022-08-10T06:57:59.671Z,17.89
2022-08-10T07:03:08.960Z,18.01
2022-08-10T07:08:12.897Z,18.11
2022-08-10T07:14:16.432Z,18.23
2022-08-10T07:18:45.823Z,18.36
2022-08-10T07:23:55.617Z,18.52
2022-08-10T07:29:06.626Z,18.63
2022-08-10T07:34:10.980Z,18.86
2022-08-10T07:39:15.394Z,19.03
2022-08-10T07:44:42.500Z,19.35
2022-08-10T07:49:48.193Z,19.72
2022-08-10T07:54:54.775Z,20.12
2022-08-10T08:00:02.891Z,20.43
2022-08-10T08:05:55.169Z,20.80
2022-08-10T08:10:39.294Z,21.19
2022-08-10T08:16:17.115Z,21.58
2022-08-10T08:21:16.063Z,22.03
2022-08-10T08:26:31.828Z,22.53
2022-08-10T08:32:02.091Z,23.00
2022-08-10T08:37:05.813Z,23.46
2022-08-10T08:42:19.451Z,23.98
2022-08-10T08:48:03.399Z,24.42
2022-08-10T08:53:22.880Z,24.65
2022-08-10T08:58:39.767Z,24.87
2022-08-10T09:04:02.577Z,25.13
2022-08-10T09:09:33.471Z,25.63
2022-08-10T09:14:41.921Z,26.01
2022-08-10T09:19:53.422Z,26.23
2022-08-10T09:25:00.171Z,26.57
2022-08-10T09:30:07.260Z,27.02
2022-08-10T09:36:24.247Z,27.06
2022-08-10T09:41:01.268Z,27.45
2022-08-10T09:46:14.185Z,28.03
2022-08-10T09:51:47.351Z,28.41
2022-08-10T09:57:17.791Z,28.54
2022-08-10T10:02:28.123Z,28.91
2022-08-10T10:07:32.749Z,29.03
2022-08-10T10:12:46.042Z,29.22
2022-08-10T10:18:06.251Z,29.79
2022-08-10T10:23:17.499Z,30.32
2022-08-10T10:29:06.899Z,30.78
2022-08-10T10:34:15.126Z,31.03
2022-08-10T10:39:24.224Z,31.26
2022-08-10T10:44:43.339Z,31.49
2022-08-10T10:49:55.294Z,31.84
2022-08-10T10:55:14.472Z,32.21
2022-08-10T11:00:22.058Z,32.58
2022-08-10T11:05:39.467Z,32.60
2022-08-10T11:10:52.661Z,32.62
2022-08-10T11:16:04.616Z,32.89
2022-08-10T11:21:17.090Z,32.86
2022-08-10T11:26:29.773Z,32.84
2022-08-10T11:31:38.819Z,32.99
2022-08-10T11:36:48.575Z,33.03
2022-08-10T11:42:09.792Z,33.08
2022-08-10T11:47:19.514Z,33.07
2022-08-10T11:52:29.605Z,33.07
2022-08-10T11:57:54.795Z,33.19
2022-08-10T12:03:05.179Z,33.11
2022-08-10T12:10:04.573Z,33.19
2022-08-10T12:13:58.447Z,33.38
2022-08-10T12:19:11.747Z,33.36
2022-08-10T12:24:23.326Z,33.30
2022-08-10T12:29:39.447Z,33.44
2022-08-10T12:34:50.872Z,33.61
2022-08-10T12:40:31.785Z,33.75
2022-08-10T12:45:37.202Z,34.17
2022-08-10T12:50:45.028Z,33.95
2022-08-10T12:55:50.296Z,34.27
2022-08-10T13:01:15.061Z,34.48
2022-08-10T13:06:19.288Z,34.39
2022-08-10T13:12:37.151Z,34.59
2022-08-10T13:16:57.501Z,34.76
2022-08-10T13:22:03.791Z,34.58
2022-08-10T13:27:25.712Z,34.74
2022-08-10T13:32:33.482Z,34.69
2022-08-10T13:37:38.505Z,34.75
2022-08-10T13:42:42.775Z,34.91
2022-08-10T13:47:50.548Z,34.71
2022-08-10T13:52:56.914Z,34.67
2022-08-10T13:58:03.886Z,34.49
2022-08-10T14:03:11.706Z,34.76
2022-08-10T14:08:18.348Z,34.41
2022-08-10T14:13:22.990Z,34.72
2022-08-10T14:18:28.765Z,34.81
2022-08-10T14:23:33.133Z,34.61
2022-08-10T14:28:40.886Z,34.24
2022-08-10T14:33:50.879Z,34.50
2022-08-10T14:38:57.555Z,34.75
2022-08-10T14:44:06.401Z,34.89
2022-08-10T14:49:26.657Z,34.90
2022-08-10T14:54:33.327Z,35.02
2022-08-10T15:00:23.140Z,35.23
2022-08-10T15:05:04.586Z,35.31
2022-08-10T15:10:19.007Z,35.28
2022-08-10T15:15:28.371Z,35.42
2022-08-10T15:20:33.418Z,35.43
2022-08-10T15:25:57.658Z,35.13
2022-08-10T15:31:01.792Z,34.99
2022-08-10T15:36:26.204Z,35.06
2022-08-10T15:41:57.649Z,35.19
2022-08-10T15:47:05.319Z,35.29
2022-08-10T15:52:38.713Z,35.18
2022-08-10T15:57:43.717Z,35.15
2022-08-10T16:02:52.128Z,35.38
2022-08-10T16:08:03.719Z,35.38
2022-08-10T16:13:50.292Z,35.32
2022-08-10T16:18:39.955Z,35.21
2022-08-10T16:23:58.337Z,35.35
2022-08-10T16:29:14.158Z,36.50
2022-08-10T16:34:17.974Z,38.44
2022-08-10T16:39:59.984Z,40.25
2022-08-10T16:44:53.278Z,41.72
2022-08-10T16:49:58.885Z,42.47
2022-08-10T16:55:17.240Z,41.89
2022-08-10T17:00:29.531Z,40.18
2022-08-10T17:06:10.184Z,38.56
2022-08-10T17:10:59.417Z,37.48
2022-08-10T17:16:05.042Z,36.90
2022-08-10T17:21:15.080Z,36.23
2022-08-10T17:26:29.178Z,35.89
2022-08-10T17:31:54.801Z,35.39
2022-08-10T17:36:59.900Z,35.21
2022-08-10T17:42:05.412Z,34.90
2022-08-10T17:47:11.018Z,34.65
2022-08-10T17:52:21.927Z,34.41
2022-08-10T17:57:27.602Z,34.18
2022-08-10T18:02:37.002Z,33.87
2022-08-10T18:07:45.570Z,33.54
2022-08-10T18:12:52.666Z,33.16
2022-08-10T18:17:59.968Z,32.95
2022-08-10T18:23:04.476Z,32.78
2022-08-10T18:28:12.002Z,32.57
2022-08-10T18:33:17.503Z,32.27
2022-08-10T18:38:22.425Z,31.93
2022-08-10T18:44:06.753Z,31.62
2022-08-10T18:49:01.058Z,31.22
2022-08-10T18:54:44.555Z,30.94
2022-08-10T19:00:03.871Z,30.57
2022-08-10T19:05:30.981Z,30.23
2022-08-10T19:10:41.031Z,29.68
2022-08-10T19:15:52.884Z,29.20
2022-08-10T19:21:01.975Z,28.83
2022-08-10T19:26:41.623Z,28.41
2022-08-10T19:31:50.957Z,28.04
2022-08-10T19:37:08.542Z,27.74
2022-08-10T19:42:20.426Z,27.45
2022-08-10T19:47:40.178Z,27.19
2022-08-10T19:52:50.559Z,26.98
2022-08-10T19:57:58.322Z,26.75
2022-08-10T20:03:14.481Z,26.51
2022-08-10T20:08:23.022Z,26.32
2022-08-10T20:13:35.055Z,26.13
2022-08-10T20:18:44.481Z,25.93
2022-08-10T20:23:55.115Z,25.72
2022-08-10T20:29:07.677Z,25.52
2022-08-10T20:34:17.618Z,25.36
2022-08-10T20:39:30.717Z,25.21
2022-08-10T20:44:43.448Z,25.04
2022-08-10T20:49:58.460Z,24.98
2022-08-10T20:55:08.567Z,24.85
2022-08-10T21:00:15.180Z,24.68
2022-08-10T21:05:28.080Z,24.48
2022-08-10T21:10:57.680Z,24.36
2022-08-10T21:16:13.773Z,24.18
2022-08-10T21:21:58.896Z,23.94
2022-08-10T21:27:15.246Z,23.75
2022-08-10T21:32:34.173Z,23.53
2022-08-10T21:37:44.859Z,23.37
2022-08-10T21:43:44.039Z,23.25
2022-08-10T21:49:14.583Z,23.16
2022-08-10T21:54:44.877Z,23.08
2022-08-10T22:00:11.118Z,22.96
2022-08-10T22:05:39.277Z,22.91
2022-08-10T22:11:06.390Z,22.94
2022-08-10T22:16:37.449Z,22.94
2022-08-10T22:22:19.912Z,22.87
2022-08-10T22:27:54.315Z,22.72
2022-08-10T22:33:32.543Z,22.53
2022-08-10T22:39:08.934Z,22.34
2022-08-10T22:44:36.755Z,22.14
2022-08-10T22:49:38.576Z,22.04
2022-08-10T22:55:06.853Z,21.95
2022-08-10T23:00:17.681Z,21.88
2022-08-10T23:05:30.633Z,21.77
2022-08-10T23:10:40.340Z,21.69
2022-08-10T23:16:16.066Z,21.59
2022-08-10T23:21:21.199Z,21.49
2022-08-10T23:26:27.122Z,21.36
2022-08-10T23:32:01.170Z,21.26
2022-08-10T23:36:58.466Z,21.14
2022-08-10T23:42:07.686Z,21.07
2022-08-10T23:47:15.284Z,20.97
2022-08-10T23:52:21.391Z,20.90
2022-08-10T23:57:27.628Z,20.80
